sensor_id;sensor_type;location;lat;lon;timestamp;temperature;humidity
3564;DHT22;1796;52.388;13.096;2022-11-20T00:01:12;-0.40;99.90
3564;DHT22;1796;52.388;13.096;2022-11-20T00:03:39;-0.40;99.90
3564;DHT22;1796;52.388;13.096;2022-11-20T00:06:10;-0.40;99.90
3564;DHT22;1796;52.388;13.096;2022-11-20T00:08:37;-0.50;99.90
3564;DHT22;1796;52.388;13.096;2022-11-20T00:11:04;-0.50;99.90
3564;DHT22;1796;52.388;13.096;2022-11-20T00:13:32;-0.60;99.90
3564;DHT22;1796;52.388;13.096;2022-11-20T00:16:00;-0.60;99.90
3564;DHT22;1796;52.388;13.096;2022-11-20T00:18:27;-0.60;99.90
3564;DHT22;1796;52.388;13.096;2022-11-20T00:21:00;-0.50;99.90
3564;DHT22;1796;52.388;13.096;2022-11-20T00:23:29;-0.50;99.90
3564;DHT22;1796;52.388;13.096;2022-11-20T00:25:56;-0.60;99.90
3564;DHT22;1796;52.388;13.096;2022-11-20T00:28:23;-0.60;99.90
3564;DHT22;1796;52.388;13.096;2022-11-20T00:30:50;-0.50;99.90
3564;DHT22;1796;52.388;13.096;2022-11-20T00:33:16;-0.60;99.90
3564;DHT22;1796;52.388;13.096;2022-11-20T00:35:43;-0.60;99.90
3564;DHT22;1796;52.388;13.096;2022-11-20T00:38:10;-0.60;99.90
3564;DHT22;1796;52.388;13.096;2022-11-20T00:40:38;-0.60;99.90
3564;DHT22;1796;52.388;13.096;2022-11-20T00:43:05;-0.70;99.90
3564;DHT22;1796;52.388;13.096;2022-11-20T00:45:32;-0.70;99.90
3564;DHT22;1796;52.388;13.096;2022-11-20T00:47:59;-0.70;99.90
3564;DHT22;1796;52.388;13.096;2022-11-20T00:50:26;-0.60;99.90
3564;DHT22;1796;52.388;13.096;2022-11-20T00:52:53;-0.70;99.90
3564;DHT22;1796;52.388;13.096;2022-11-20T00:55:19;-0.80;99.90
3564;DHT22;1796;52.388;13.096;2022-11-20T00:57:48;-0.80;99.90
3564;DHT22;1796;52.388;13.096;2022-11-20T01:00:15;-0.70;99.90
3564;DHT22;1796;52.388;13.096;2022-11-20T01:02:42;-0.70;99.90
3564;DHT22;1796;52.388;13.096;2022-11-20T01:05:09;-0.70;99.90
3564;DHT22;1796;52.388;13.096;2022-11-20T01:07:36;-0.70;99.90
3564;DHT22;1796;52.388;13.096;2022-11-20T01:10:03;-0.80;99.90
3564;DHT22;1796;52.388;13.096;2022-11-20T01:12:30;-0.90;99.90
3564;DHT22;1796;52.388;13.096;2022-11-20T01:14:58;-0.80;99.90
3564;DHT22;1796;52.388;13.096;2022-11-20T01:17:25;-0.90;99.90
3564;DHT22;1796;52.388;13.096;2022-11-20T01:19:52;-0.90;99.90
3564;DHT22;1796;52.388;13.096;2022-11-20T01:22:19;-1.00;99.90
3564;DHT22;1796;52.388;13.096;2022-11-20T01:24:45;-1.20;99.90
3564;DHT22;1796;52.388;13.096;2022-11-20T01:27:12;-1.30;99.90
3564;DHT22;1796;52.388;13.096;2022-11-20T01:29:39;-1.40;99.90
3564;DHT22;1796;52.388;13.096;2022-11-20T01:32:07;-1.50;99.90
3564;DHT22;1796;52.388;13.096;2022-11-20T01:34:34;-1.50;99.90
3564;DHT22;1796;52.388;13.096;2022-11-20T01:37:01;-1.60;99.90
3564;DHT22;1796;52.388;13.096;2022-11-20T01:39:28;-1.60;99.90
3564;DHT22;1796;52.388;13.096;2022-11-20T01:41:56;-1.70;99.90
3564;DHT22;1796;52.388;13.096;2022-11-20T01:44:49;-1.70;99.90
3564;DHT22;1796;52.388;13.096;2022-11-20T01:47:21;-1.70;99.90
3564;DHT22;1796;52.388;13.096;2022-11-20T01:49:54;-1.80;99.90
3564;DHT22;1796;52.388;13.096;2022-11-20T01:52:24;-1.80;99.90
3564;DHT22;1796;52.388;13.096;2022-11-20T01:54:56;-1.80;99.90
3564;DHT22;1796;52.388;13.096;2022-11-20T01:57:26;-1.70;99.90
3564;DHT22;1796;52.388;13.096;2022-11-20T01:59:59;-1.70;99.90
3564;DHT22;1796;52.388;13.096;2022-11-20T02:02:28;-1.80;99.90
3564;DHT22;1796;52.388;13.096;2022-11-20T02:04:57;-1.80;99.90
3564;DHT22;1796;52.388;13.096;2022-11-20T02:07:27;-1.80;99.90
3564;DHT22;1796;52.388;13.096;2022-11-20T02:09:55;-1.80;99.90
3564;DHT22;1796;52.388;13.096;2022-11-20T02:12:22;-1.90;99.90
3564;DHT22;1796;52.388;13.096;2022-11-20T02:15:06;-1.90;99.90
3564;DHT22;1796;52.388;13.096;2022-11-20T02:17:35;-1.90;99.90
3564;DHT22;1796;52.388;13.096;2022-11-20T02:20:02;-1.90;99.90
3564;DHT22;1796;52.388;13.096;2022-11-20T02:22:34;-1.90;99.90
3564;DHT22;1796;52.388;13.096;2022-11-20T02:25:04;-1.90;99.90
3564;DHT22;1796;52.388;13.096;2022-11-20T02:27:32;-1.90;99.90
3564;DHT22;1796;52.388;13.096;2022-11-20T02:30:02;-2.00;99.90
3564;DHT22;1796;52.388;13.096;2022-11-20T02:32:31;-2.00;99.90
3564;DHT22;1796;52.388;13.096;2022-11-20T02:34:58;-2.00;99.90
3564;DHT22;1796;52.388;13.096;2022-11-20T02:37:35;-2.00;99.90
3564;DHT22;1796;52.388;13.096;2022-11-20T02:40:05;-2.10;99.90
3564;DHT22;1796;52.388;13.096;2022-11-20T02:42:32;-2.20;99.90
3564;DHT22;1796;52.388;13.096;2022-11-20T02:44:59;-2.10;99.90
3564;DHT22;1796;52.388;13.096;2022-11-20T02:47:25;-2.20;99.90
3564;DHT22;1796;52.388;13.096;2022-11-20T02:49:52;-2.10;99.90
3564;DHT22;1796;52.388;13.096;2022-11-20T02:52:19;-2.10;99.90
3564;DHT22;1796;52.388;13.096;2022-11-20T02:54:46;-2.10;99.90
3564;DHT22;1796;52.388;13.096;2022-11-20T02:57:14;-2.20;99.90
3564;DHT22;1796;52.388;13.096;2022-11-20T02:59:41;-2.30;99.90
3564;DHT22;1796;52.388;13.096;2022-11-20T03:02:08;-2.20;99.90
3564;DHT22;1796;52.388;13.096;2022-11-20T03:04:35;-2.20;99.90
3564;DHT22;1796;52.388;13.096;2022-11-20T03:07:01;-2.10;99.90
3564;DHT22;1796;52.388;13.096;2022-11-20T03:09:29;-2.10;99.90
3564;DHT22;1796;52.388;13.096;2022-11-20T03:11:56;-2.10;99.90
3564;DHT22;1796;52.388;13.096;2022-11-20T03:14:24;-2.10;99.90
3564;DHT22;1796;52.388;13.096;2022-11-20T03:16:51;-2.20;99.90
3564;DHT22;1796;52.388;13.096;2022-11-20T03:19:18;-2.20;99.90
3564;DHT22;1796;52.388;13.096;2022-11-20T03:21:44;-2.30;99.90
3564;DHT22;1796;52.388;13.096;2022-11-20T03:24:12;-2.20;99.90
3564;DHT22;1796;52.388;13.096;2022-11-20T03:26:40;-2.20;99.90
3564;DHT22;1796;52.388;13.096;2022-11-20T03:29:07;-2.30;99.90
3564;DHT22;1796;52.388;13.096;2022-11-20T03:31:37;-2.40;99.90
3564;DHT22;1796;52.388;13.096;2022-11-20T03:34:06;-2.40;99.90
3564;DHT22;1796;52.388;13.096;2022-11-20T03:36:33;-2.30;99.90
3564;DHT22;1796;52.388;13.096;2022-11-20T03:39:00;-2.20;99.90
3564;DHT22;1796;52.388;13.096;2022-11-20T03:41:29;-2.00;99.90
3564;DHT22;1796;52.388;13.096;2022-11-20T03:43:58;-1.90;99.90
3564;DHT22;1796;52.388;13.096;2022-11-20T03:46:25;-1.90;99.90
3564;DHT22;1796;52.388;13.096;2022-11-20T03:48:54;-1.70;99.90
3564;DHT22;1796;52.388;13.096;2022-11-20T03:51:22;-1.70;99.90
3564;DHT22;1796;52.388;13.096;2022-11-20T03:53:51;-1.60;99.90
3564;DHT22;1796;52.388;13.096;2022-11-20T03:56:20;-1.50;99.90
3564;DHT22;1796;52.388;13.096;2022-11-20T03:58:48;-1.40;99.90
3564;DHT22;1796;52.388;13.096;2022-11-20T04:01:18;-1.30;99.90
3564;DHT22;1796;52.388;13.096;2022-11-20T04:03:45;-1.30;99.90
3564;DHT22;1796;52.388;13.096;2022-11-20T04:06:16;-1.20;99.90
3564;DHT22;1796;52.388;13.096;2022-11-20T04:08:43;-1.10;99.90
3564;DHT22;1796;52.388;13.096;2022-11-20T04:11:12;-1.00;99.90
3564;DHT22;1796;52.388;13.096;2022-11-20T04:13:39;-1.00;99.90
3564;DHT22;1796;52.388;13.096;2022-11-20T04:16:07;-1.00;99.90
3564;DHT22;1796;52.388;13.096;2022-11-20T04:18:35;-0.90;99.90
3564;DHT22;1796;52.388;13.096;2022-11-20T04:21:02;-0.90;99.90
3564;DHT22;1796;52.388;13.096;2022-11-20T04:23:31;-0.90;99.90
3564;DHT22;1796;52.388;13.096;2022-11-20T04:26:01;-0.90;99.90
3564;DHT22;1796;52.388;13.096;2022-11-20T04:28:28;-1.00;99.90
3564;DHT22;1796;52.388;13.096;2022-11-20T04:31:02;-1.00;99.90
3564;DHT22;1796;52.388;13.096;2022-11-20T04:33:29;-0.90;99.90
3564;DHT22;1796;52.388;13.096;2022-11-20T04:36:00;-1.00;99.90
3564;DHT22;1796;52.388;13.096;2022-11-20T04:38:27;-1.00;99.90
3564;DHT22;1796;52.388;13.096;2022-11-20T04:40:57;-0.90;99.90
3564;DHT22;1796;52.388;13.096;2022-11-20T04:43:24;-0.90;99.90
3564;DHT22;1796;52.388;13.096;2022-11-20T04:45:51;-0.90;99.90
3564;DHT22;1796;52.388;13.096;2022-11-20T04:48:18;-0.90;99.90
3564;DHT22;1796;52.388;13.096;2022-11-20T04:50:45;-1.00;99.90
3564;DHT22;1796;52.388;13.096;2022-11-20T04:53:12;-0.90;99.90
3564;DHT22;1796;52.388;13.096;2022-11-20T04:55:39;-1.00;99.90
3564;DHT22;1796;52.388;13.096;2022-11-20T04:58:07;-1.00;99.90
3564;DHT22;1796;52.388;13.096;2022-11-20T05:00:34;-0.90;99.90
3564;DHT22;1796;52.388;13.096;2022-11-20T05:03:01;-1.00;99.90
3564;DHT22;1796;52.388;13.096;2022-11-20T05:05:28;-1.00;99.90
3564;DHT22;1796;52.388;13.096;2022-11-20T05:07:56;-1.00;99.90
3564;DHT22;1796;52.388;13.096;2022-11-20T05:10:23;-1.00;99.90
3564;DHT22;1796;52.388;13.096;2022-11-20T05:12:50;-1.10;99.90
3564;DHT22;1796;52.388;13.096;2022-11-20T05:15:18;-1.00;99.90
3564;DHT22;1796;52.388;13.096;2022-11-20T05:17:47;-1.10;99.90
3564;DHT22;1796;52.388;13.096;2022-11-20T05:20:14;-1.00;99.90
3564;DHT22;1796;52.388;13.096;2022-11-20T05:22:41;-1.00;99.90
3564;DHT22;1796;52.388;13.096;2022-11-20T05:25:08;-0.90;99.90
3564;DHT22;1796;52.388;13.096;2022-11-20T05:27:35;-0.90;99.90
3564;DHT22;1796;52.388;13.096;2022-11-20T05:30:02;-0.80;99.90
3564;DHT22;1796;52.388;13.096;2022-11-20T05:32:31;-0.80;99.90
3564;DHT22;1796;52.388;13.096;2022-11-20T05:34:57;-0.70;99.90
3564;DHT22;1796;52.388;13.096;2022-11-20T05:37:24;-0.80;99.90
3564;DHT22;1796;52.388;13.096;2022-11-20T05:39:51;-0.80;99.90
3564;DHT22;1796;52.388;13.096;2022-11-20T05:42:18;-0.70;99.90
3564;DHT22;1796;52.388;13.096;2022-11-20T05:44:57;-0.70;99.90
3564;DHT22;1796;52.388;13.096;2022-11-20T05:47:24;-0.70;99.90
3564;DHT22;1796;52.388;13.096;2022-11-20T05:49:52;-0.70;99.90
3564;DHT22;1796;52.388;13.096;2022-11-20T05:52:20;-0.70;99.90
3564;DHT22;1796;52.388;13.096;2022-11-20T05:54:47;-0.70;99.90
3564;DHT22;1796;52.388;13.096;2022-11-20T05:57:14;-0.70;99.90
3564;DHT22;1796;52.388;13.096;2022-11-20T05:59:41;-0.60;99.90
3564;DHT22;1796;52.388;13.096;2022-11-20T06:02:08;-0.60;99.90
3564;DHT22;1796;52.388;13.096;2022-11-20T06:04:35;-0.60;99.90
3564;DHT22;1796;52.388;13.096;2022-11-20T06:07:05;-0.70;99.90
3564;DHT22;1796;52.388;13.096;2022-11-20T06:09:32;-0.60;99.90
3564;DHT22;1796;52.388;13.096;2022-11-20T06:11:59;-0.60;99.90
3564;DHT22;1796;52.388;13.096;2022-11-20T06:14:26;-0.60;99.90
3564;DHT22;1796;52.388;13.096;2022-11-20T06:16:52;-0.60;99.90
3564;DHT22;1796;52.388;13.096;2022-11-20T06:19:19;-0.70;99.90
3564;DHT22;1796;52.388;13.096;2022-11-20T06:21:48;-0.60;99.90
3564;DHT22;1796;52.388;13.096;2022-11-20T06:24:17;-0.70;99.90
3564;DHT22;1796;52.388;13.096;2022-11-20T06:26:44;-0.60;99.90
3564;DHT22;1796;52.388;13.096;2022-11-20T06:29:11;-0.60;99.90
3564;DHT22;1796;52.388;13.096;2022-11-20T06:31:38;-0.60;99.90
3564;DHT22;1796;52.388;13.096;2022-11-20T06:34:05;-0.70;99.90
3564;DHT22;1796;52.388;13.096;2022-11-20T06:36:32;-0.70;99.90
3564;DHT22;1796;52.388;13.096;2022-11-20T06:38:59;-0.60;99.90
3564;DHT22;1796;52.388;13.096;2022-11-20T06:41:28;-0.70;99.90
3564;DHT22;1796;52.388;13.096;2022-11-20T06:43:55;-0.70;99.90
3564;DHT22;1796;52.388;13.096;2022-11-20T06:46:22;-0.70;99.90
3564;DHT22;1796;52.388;13.096;2022-11-20T06:48:49;-0.80;99.90
3564;DHT22;1796;52.388;13.096;2022-11-20T06:51:17;-0.80;99.90
3564;DHT22;1796;52.388;13.096;2022-11-20T06:53:44;-0.80;99.90
3564;DHT22;1796;52.388;13.096;2022-11-20T06:56:11;-0.90;99.90
3564;DHT22;1796;52.388;13.096;2022-11-20T06:58:39;-0.90;99.90
3564;DHT22;1796;52.388;13.096;2022-11-20T07:01:08;-0.90;99.90
3564;DHT22;1796;52.388;13.096;2022-11-20T07:03:36;-0.90;99.90
3564;DHT22;1796;52.388;13.096;2022-11-20T07:06:03;-0.90;99.90
3564;DHT22;1796;52.388;13.096;2022-11-20T07:08:31;-0.80;99.90
3564;DHT22;1796;52.388;13.096;2022-11-20T07:10:58;-0.70;99.90
3564;DHT22;1796;52.388;13.096;2022-11-20T07:13:26;-0.80;99.90
3564;DHT22;1796;52.388;13.096;2022-11-20T07:15:54;-0.90;99.90
3564;DHT22;1796;52.388;13.096;2022-11-20T07:18:21;-0.80;99.90
3564;DHT22;1796;52.388;13.096;2022-11-20T07:20:48;-0.90;99.90
3564;DHT22;1796;52.388;13.096;2022-11-20T07:23:15;-0.90;99.90
3564;DHT22;1796;52.388;13.096;2022-11-20T07:25:41;-0.90;99.90
3564;DHT22;1796;52.388;13.096;2022-11-20T07:28:08;-0.90;99.90
3564;DHT22;1796;52.388;13.096;2022-11-20T07:30:36;-0.90;99.90
3564;DHT22;1796;52.388;13.096;2022-11-20T07:33:04;-0.90;99.90
3564;DHT22;1796;52.388;13.096;2022-11-20T07:35:31;-0.90;99.90
3564;DHT22;1796;52.388;13.096;2022-11-20T07:37:58;-0.90;99.90
3564;DHT22;1796;52.388;13.096;2022-11-20T07:40:25;-0.80;99.90
3564;DHT22;1796;52.388;13.096;2022-11-20T07:42:54;-0.80;99.90
3564;DHT22;1796;52.388;13.096;2022-11-20T07:45:22;-0.80;99.90
3564;DHT22;1796;52.388;13.096;2022-11-20T07:47:50;-0.70;99.90
3564;DHT22;1796;52.388;13.096;2022-11-20T07:50:19;-0.70;99.90
3564;DHT22;1796;52.388;13.096;2022-11-20T07:52:46;-0.60;99.90
3564;DHT22;1796;52.388;13.096;2022-11-20T07:55:13;-0.60;99.90
3564;DHT22;1796;52.388;13.096;2022-11-20T07:57:40;-0.50;99.90
3564;DHT22;1796;52.388;13.096;2022-11-20T08:00:09;-0.50;99.90
3564;DHT22;1796;52.388;13.096;2022-11-20T08:02:37;-0.40;99.90
3564;DHT22;1796;52.388;13.096;2022-11-20T08:05:05;-0.40;99.90
3564;DHT22;1796;52.388;13.096;2022-11-20T08:07:37;-0.40;99.90
3564;DHT22;1796;52.388;13.096;2022-11-20T08:10:04;-0.30;99.90
3564;DHT22;1796;52.388;13.096;2022-11-20T08:12:31;-0.20;99.90
3564;DHT22;1796;52.388;13.096;2022-11-20T08:15:16;-0.30;99.90
3564;DHT22;1796;52.388;13.096;2022-11-20T08:17:43;-0.20;99.90
3564;DHT22;1796;52.388;13.096;2022-11-20T08:20:10;-0.20;99.90
3564;DHT22;1796;52.388;13.096;2022-11-20T08:22:38;-0.20;99.90
3564;DHT22;1796;52.388;13.096;2022-11-20T08:25:05;-0.10;99.90
3564;DHT22;1796;52.388;13.096;2022-11-20T08:27:32;0.00;99.90
3564;DHT22;1796;52.388;13.096;2022-11-20T08:29:59;-0.10;99.90
3564;DHT22;1796;52.388;13.096;2022-11-20T08:32:26;-0.10;99.90
3564;DHT22;1796;52.388;13.096;2022-11-20T08:34:53;-0.10;99.90
3564;DHT22;1796;52.388;13.096;2022-11-20T08:37:20;-0.10;99.90
3564;DHT22;1796;52.388;13.096;2022-11-20T08:39:48;-0.10;99.90
3564;DHT22;1796;52.388;13.096;2022-11-20T08:42:15;-0.10;99.90
3564;DHT22;1796;52.388;13.096;2022-11-20T08:44:42;-0.10;99.90
3564;DHT22;1796;52.388;13.096;2022-11-20T08:47:09;-0.10;99.90
3564;DHT22;1796;52.388;13.096;2022-11-20T08:49:36;-0.10;99.90
3564;DHT22;1796;52.388;13.096;2022-11-20T08:52:03;-0.20;99.90
3564;DHT22;1796;52.388;13.096;2022-11-20T08:54:31;-0.10;99.90
3564;DHT22;1796;52.388;13.096;2022-11-20T08:56:59;0.00;99.90
3564;DHT22;1796;52.388;13.096;2022-11-20T08:59:26;0.00;99.90
3564;DHT22;1796;52.388;13.096;2022-11-20T09:01:52;0.10;99.90
3564;DHT22;1796;52.388;13.096;2022-11-20T09:04:19;0.10;99.90
3564;DHT22;1796;52.388;13.096;2022-11-20T09:06:46;0.10;99.90
3564;DHT22;1796;52.388;13.096;2022-11-20T09:09:16;0.10;99.90
3564;DHT22;1796;52.388;13.096;2022-11-20T09:11:43;0.20;99.90
3564;DHT22;1796;52.388;13.096;2022-11-20T09:14:11;0.30;99.90
3564;DHT22;1796;52.388;13.096;2022-11-20T09:16:38;0.30;99.90
3564;DHT22;1796;52.388;13.096;2022-11-20T09:19:05;0.30;99.90
3564;DHT22;1796;52.388;13.096;2022-11-20T09:21:31;0.30;99.90
3564;DHT22;1796;52.388;13.096;2022-11-20T09:23:58;0.40;99.90
3564;DHT22;1796;52.388;13.096;2022-11-20T09:26:25;0.40;99.90
3564;DHT22;1796;52.388;13.096;2022-11-20T09:28:52;0.30;99.90
3564;DHT22;1796;52.388;13.096;2022-11-20T09:31:23;0.30;99.90
3564;DHT22;1796;52.388;13.096;2022-11-20T09:33:51;0.30;99.90
3564;DHT22;1796;52.388;13.096;2022-11-20T09:36:18;0.40;99.90
3564;DHT22;1796;52.388;13.096;2022-11-20T09:38:45;0.40;99.90
3564;DHT22;1796;52.388;13.096;2022-11-20T09:44:24;0.50;99.90
3564;DHT22;1796;52.388;13.096;2022-11-20T09:47:02;0.50;99.90
3564;DHT22;1796;52.388;13.096;2022-11-20T09:49:39;0.50;99.90
3564;DHT22;1796;52.388;13.096;2022-11-20T09:52:22;0.40;99.90
3564;DHT22;1796;52.388;13.096;2022-11-20T09:54:53;0.30;99.90
3564;DHT22;1796;52.388;13.096;2022-11-20T09:57:23;0.40;99.90
3564;DHT22;1796;52.388;13.096;2022-11-20T09:59:55;0.30;99.90
3564;DHT22;1796;52.388;13.096;2022-11-20T10:02:30;0.30;99.90
3564;DHT22;1796;52.388;13.096;2022-11-20T10:05:00;0.30;99.90
3564;DHT22;1796;52.388;13.096;2022-11-20T10:07:32;0.20;99.90
3564;DHT22;1796;52.388;13.096;2022-11-20T10:10:03;0.40;99.90
3564;DHT22;1796;52.388;13.096;2022-11-20T10:12:45;0.40;99.90
3564;DHT22;1796;52.388;13.096;2022-11-20T10:15:24;0.60;99.90
3564;DHT22;1796;52.388;13.096;2022-11-20T10:18:04;0.60;99.90
3564;DHT22;1796;52.388;13.096;2022-11-20T10:20:42;0.70;99.90
3564;DHT22;1796;52.388;13.096;2022-11-20T10:23:31;0.60;99.90
3564;DHT22;1796;52.388;13.096;2022-11-20T10:26:03;0.60;99.90
3564;DHT22;1796;52.388;13.096;2022-11-20T10:28:43;0.70;99.90
3564;DHT22;1796;52.388;13.096;2022-11-20T10:31:22;0.50;99.90
3564;DHT22;1796;52.388;13.096;2022-11-20T10:33:54;0.60;99.90
3564;DHT22;1796;52.388;13.096;2022-11-20T10:36:25;0.70;99.90
3564;DHT22;1796;52.388;13.096;2022-11-20T10:38:56;0.70;99.90
3564;DHT22;1796;52.388;13.096;2022-11-20T10:41:28;0.60;99.90
3564;DHT22;1796;52.388;13.096;2022-11-20T10:44:02;0.80;99.90
3564;DHT22;1796;52.388;13.096;2022-11-20T10:46:37;0.80;99.90
3564;DHT22;1796;52.388;13.096;2022-11-20T10:49:12;1.00;99.90
3564;DHT22;1796;52.388;13.096;2022-11-20T10:51:52;1.10;99.90
3564;DHT22;1796;52.388;13.096;2022-11-20T10:54:26;1.10;99.90
3564;DHT22;1796;52.388;13.096;2022-11-20T10:57:02;1.10;99.90
3564;DHT22;1796;52.388;13.096;2022-11-20T10:59:49;1.10;99.90
3564;DHT22;1796;52.388;13.096;2022-11-20T11:02:19;1.10;99.90
3564;DHT22;1796;52.388;13.096;2022-11-20T11:04:49;1.20;99.90
3564;DHT22;1796;52.388;13.096;2022-11-20T11:07:20;1.20;99.90
3564;DHT22;1796;52.388;13.096;2022-11-20T11:09:49;1.30;99.90
3564;DHT22;1796;52.388;13.096;2022-11-20T11:12:16;1.40;99.90
3564;DHT22;1796;52.388;13.096;2022-11-20T11:14:46;1.70;99.90
3564;DHT22;1796;52.388;13.096;2022-11-20T11:17:25;1.90;99.90
3564;DHT22;1796;52.388;13.096;2022-11-20T11:20:03;2.00;99.90
3564;DHT22;1796;52.388;13.096;2022-11-20T11:22:33;2.30;99.90
3564;DHT22;1796;52.388;13.096;2022-11-20T11:25:00;2.30;99.90
3564;DHT22;1796;52.388;13.096;2022-11-20T11:27:27;2.50;99.90
3564;DHT22;1796;52.388;13.096;2022-11-20T11:30:12;2.60;99.90
3564;DHT22;1796;52.388;13.096;2022-11-20T11:32:40;2.60;99.90
3564;DHT22;1796;52.388;13.096;2022-11-20T11:35:23;2.60;99.90
3564;DHT22;1796;52.388;13.096;2022-11-20T11:37:52;2.40;99.90
3564;DHT22;1796;52.388;13.096;2022-11-20T11:40:21;2.60;99.90
3564;DHT22;1796;52.388;13.096;2022-11-20T11:42:54;2.50;99.90
3564;DHT22;1796;52.388;13.096;2022-11-20T11:45:23;2.30;99.90
3564;DHT22;1796;52.388;13.096;2022-11-20T11:47:51;2.20;99.90
3564;DHT22;1796;52.388;13.096;2022-11-20T11:50:21;2.10;99.90
3564;DHT22;1796;52.388;13.096;2022-11-20T11:53:00;2.00;99.90
3564;DHT22;1796;52.388;13.096;2022-11-20T11:55:33;1.80;99.90
3564;DHT22;1796;52.388;13.096;2022-11-20T11:58:25;1.70;99.90
3564;DHT22;1796;52.388;13.096;2022-11-20T12:01:00;1.70;99.90
3564;DHT22;1796;52.388;13.096;2022-11-20T12:03:35;1.70;99.90
3564;DHT22;1796;52.388;13.096;2022-11-20T12:06:06;1.70;99.90
3564;DHT22;1796;52.388;13.096;2022-11-20T12:08:42;1.80;99.90
3564;DHT22;1796;52.388;13.096;2022-11-20T12:11:14;1.80;99.90
3564;DHT22;1796;52.388;13.096;2022-11-20T12:13:48;1.80;99.90
3564;DHT22;1796;52.388;13.096;2022-11-20T12:16:19;1.60;99.90
3564;DHT22;1796;52.388;13.096;2022-11-20T12:18:48;1.50;99.90
3564;DHT22;1796;52.388;13.096;2022-11-20T12:21:26;1.40;99.90
3564;DHT22;1796;52.388;13.096;2022-11-20T12:24:11;1.30;99.90
3564;DHT22;1796;52.388;13.096;2022-11-20T12:26:53;1.40;99.90
3564;DHT22;1796;52.388;13.096;2022-11-20T12:29:29;1.30;99.90
3564;DHT22;1796;52.388;13.096;2022-11-20T12:32:14;1.30;99.90
3564;DHT22;1796;52.388;13.096;2022-11-20T12:34:56;1.30;99.90
3564;DHT22;1796;52.388;13.096;2022-11-20T12:37:37;1.40;99.90
3564;DHT22;1796;52.388;13.096;2022-11-20T12:40:22;1.40;99.90
3564;DHT22;1796;52.388;13.096;2022-11-20T12:43:01;1.30;99.90
3564;DHT22;1796;52.388;13.096;2022-11-20T12:46:08;1.30;99.90
3564;DHT22;1796;52.388;13.096;2022-11-20T12:48:46;1.30;99.90
3564;DHT22;1796;52.388;13.096;2022-11-20T12:51:34;1.40;99.90
3564;DHT22;1796;52.388;13.096;2022-11-20T12:54:20;1.40;99.90
3564;DHT22;1796;52.388;13.096;2022-11-20T12:56:52;1.30;99.90
3564;DHT22;1796;52.388;13.096;2022-11-20T12:59:33;1.40;99.90
3564;DHT22;1796;52.388;13.096;2022-11-20T13:02:18;1.40;99.90
3564;DHT22;1796;52.388;13.096;2022-11-20T13:05:17;1.40;99.90
3564;DHT22;1796;52.388;13.096;2022-11-20T13:07:46;1.40;99.90
3564;DHT22;1796;52.388;13.096;2022-11-20T13:10:20;1.50;99.90
3564;DHT22;1796;52.388;13.096;2022-11-20T13:12:51;1.40;99.90
3564;DHT22;1796;52.388;13.096;2022-11-20T13:15:32;1.40;99.90
3564;DHT22;1796;52.388;13.096;2022-11-20T13:18:02;1.30;99.90
3564;DHT22;1796;52.388;13.096;2022-11-20T13:20:30;1.40;99.90
3564;DHT22;1796;52.388;13.096;2022-11-20T13:22:58;1.40;99.90
3564;DHT22;1796;52.388;13.096;2022-11-20T13:25:28;1.40;99.90
3564;DHT22;1796;52.388;13.096;2022-11-20T13:27:57;1.30;99.90
3564;DHT22;1796;52.388;13.096;2022-11-20T13:30:25;1.40;99.90
3564;DHT22;1796;52.388;13.096;2022-11-20T13:32:54;1.40;99.90
3564;DHT22;1796;52.388;13.096;2022-11-20T13:35:27;1.20;99.90
3564;DHT22;1796;52.388;13.096;2022-11-20T13:38:16;1.20;99.90
3564;DHT22;1796;52.388;13.096;2022-11-20T13:40:52;1.30;99.90
3564;DHT22;1796;52.388;13.096;2022-11-20T13:43:23;1.10;99.90
3564;DHT22;1796;52.388;13.096;2022-11-20T13:45:57;1.00;99.90
3564;DHT22;1796;52.388;13.096;2022-11-20T13:48:28;1.00;99.90
3564;DHT22;1796;52.388;13.096;2022-11-20T13:51:12;1.10;99.90
3564;DHT22;1796;52.388;13.096;2022-11-20T13:54:16;1.00;99.90
3564;DHT22;1796;52.388;13.096;2022-11-20T13:56:59;1.00;99.90
3564;DHT22;1796;52.388;13.096;2022-11-20T13:59:41;1.00;99.90
3564;DHT22;1796;52.388;13.096;2022-11-20T14:02:12;1.00;99.90
3564;DHT22;1796;52.388;13.096;2022-11-20T14:04:43;1.00;99.90
3564;DHT22;1796;52.388;13.096;2022-11-20T14:07:12;0.90;99.90
3564;DHT22;1796;52.388;13.096;2022-11-20T14:09:49;0.90;99.90
3564;DHT22;1796;52.388;13.096;2022-11-20T14:12:20;0.90;99.90
3564;DHT22;1796;52.388;13.096;2022-11-20T14:14:49;0.80;99.90
3564;DHT22;1796;52.388;13.096;2022-11-20T14:17:18;0.90;99.90
3564;DHT22;1796;52.388;13.096;2022-11-20T14:19:47;0.90;99.90
3564;DHT22;1796;52.388;13.096;2022-11-20T14:22:19;0.90;99.90
3564;DHT22;1796;52.388;13.096;2022-11-20T14:24:47;1.00;99.90
3564;DHT22;1796;52.388;13.096;2022-11-20T14:27:16;1.00;99.90
3564;DHT22;1796;52.388;13.096;2022-11-20T14:29:46;1.00;99.90
3564;DHT22;1796;52.388;13.096;2022-11-20T14:32:16;1.00;99.90
3564;DHT22;1796;52.388;13.096;2022-11-20T14:34:46;1.00;99.90
3564;DHT22;1796;52.388;13.096;2022-11-20T14:37:18;0.90;99.90
3564;DHT22;1796;52.388;13.096;2022-11-20T14:39:49;0.80;99.90
3564;DHT22;1796;52.388;13.096;2022-11-20T14:42:19;0.70;99.90
3564;DHT22;1796;52.388;13.096;2022-11-20T14:44:48;0.60;99.90
3564;DHT22;1796;52.388;13.096;2022-11-20T14:47:20;0.60;99.90
3564;DHT22;1796;52.388;13.096;2022-11-20T14:49:48;0.70;99.90
3564;DHT22;1796;52.388;13.096;2022-11-20T14:52:18;0.70;99.90
3564;DHT22;1796;52.388;13.096;2022-11-20T14:54:46;0.80;99.90
3564;DHT22;1796;52.388;13.096;2022-11-20T14:57:25;0.70;99.90
3564;DHT22;1796;52.388;13.096;2022-11-20T15:00:06;0.70;99.90
3564;DHT22;1796;52.388;13.096;2022-11-20T15:02:34;0.70;99.90
3564;DHT22;1796;52.388;13.096;2022-11-20T15:05:02;0.70;99.90
3564;DHT22;1796;52.388;13.096;2022-11-20T15:07:31;0.60;99.90
3564;DHT22;1796;52.388;13.096;2022-11-20T15:10:04;0.70;99.90
3564;DHT22;1796;52.388;13.096;2022-11-20T15:12:31;0.80;99.90
3564;DHT22;1796;52.388;13.096;2022-11-20T15:15:00;0.70;99.90
3564;DHT22;1796;52.388;13.096;2022-11-20T15:17:28;0.70;99.90
3564;DHT22;1796;52.388;13.096;2022-11-20T15:19:55;0.80;99.90
3564;DHT22;1796;52.388;13.096;2022-11-20T15:22:22;0.80;99.90
3564;DHT22;1796;52.388;13.096;2022-11-20T15:24:49;0.70;99.90
3564;DHT22;1796;52.388;13.096;2022-11-20T15:27:16;0.80;99.90
3564;DHT22;1796;52.388;13.096;2022-11-20T15:29:43;0.70;99.90
3564;DHT22;1796;52.388;13.096;2022-11-20T15:32:10;0.70;99.90
3564;DHT22;1796;52.388;13.096;2022-11-20T15:34:38;0.70;99.90
3564;DHT22;1796;52.388;13.096;2022-11-20T15:37:05;0.80;99.90
3564;DHT22;1796;52.388;13.096;2022-11-20T15:39:32;0.70;99.90
3564;DHT22;1796;52.388;13.096;2022-11-20T15:41:59;0.70;99.90
3564;DHT22;1796;52.388;13.096;2022-11-20T15:44:26;0.70;99.90
3564;DHT22;1796;52.388;13.096;2022-11-20T15:46:53;0.70;99.90
3564;DHT22;1796;52.388;13.096;2022-11-20T15:49:20;0.70;99.90
3564;DHT22;1796;52.388;13.096;2022-11-20T15:51:49;0.70;99.90
3564;DHT22;1796;52.388;13.096;2022-11-20T15:54:19;0.70;99.90
3564;DHT22;1796;52.388;13.096;2022-11-20T15:56:46;0.70;99.90
3564;DHT22;1796;52.388;13.096;2022-11-20T15:59:13;0.70;99.90
3564;DHT22;1796;52.388;13.096;2022-11-20T16:01:41;0.70;99.90
3564;DHT22;1796;52.388;13.096;2022-11-20T16:04:10;0.70;99.90
3564;DHT22;1796;52.388;13.096;2022-11-20T16:06:37;0.70;99.90
3564;DHT22;1796;52.388;13.096;2022-11-20T16:09:06;0.70;99.90
3564;DHT22;1796;52.388;13.096;2022-11-20T16:11:33;0.70;99.90
3564;DHT22;1796;52.388;13.096;2022-11-20T16:14:00;0.70;99.90